sensor_id;sensor_type;location;lat;lon;timestamp;pressure;altitude;pressure_sealevel;temperature;humidity
50394;BME280;36308;46.312;25.288;2023-02-23T00:01:55;96089.34;;;2.32;66.24
50394;BME280;36308;46.312;25.288;2023-02-23T00:04:22;96086.91;;;2.24;66.18
50394;BME280;36308;46.312;25.288;2023-02-23T00:06:48;96091.19;;;2.25;66.28
50394;BME280;36308;46.312;25.288;2023-02-23T00:09:16;96090.78;;;2.21;66.64
50394;BME280;36308;46.312;25.288;2023-02-23T00:11:55;96096.09;;;2.21;66.99
50394;BME280;36308;46.312;25.288;2023-02-23T00:14:25;96090.97;;;2.20;66.31
50394;BME280;36308;46.312;25.288;2023-02-23T00:16:56;96079.97;;;2.10;66.95
50394;BME280;36308;46.312;25.288;2023-02-23T00:19:22;96094.06;;;2.17;67.30
50394;BME280;36308;46.312;25.288;2023-02-23T00:21:49;96086.50;;;2.14;66.91
50394;BME280;36308;46.312;25.288;2023-02-23T00:24:15;96090.97;;;2.13;67.00
50394;BME280;36308;46.312;25.288;2023-02-23T00:26:43;96089.97;;;2.14;67.55
50394;BME280;36308;46.312;25.288;2023-02-23T00:29:22;96094.47;;;2.14;67.17
50394;BME280;36308;46.312;25.288;2023-02-23T00:31:50;96086.72;;;2.12;67.44
50394;BME280;36308;46.312;25.288;2023-02-23T00:34:18;96085.91;;;2.12;67.27
50394;BME280;36308;46.312;25.288;2023-02-23T00:36:52;96091.19;;;2.12;67.25
50394;BME280;36308;46.312;25.288;2023-02-23T00:39:19;96081.59;;;2.04;67.72
50394;BME280;36308;46.312;25.288;2023-02-23T00:41:46;96091.59;;;2.09;67.44
50394;BME280;36308;46.312;25.288;2023-02-23T00:44:12;96086.28;;;2.09;67.59
50394;BME280;36308;46.312;25.288;2023-02-23T00:46:42;96080.97;;;2.09;67.28
50394;BME280;36308;46.312;25.288;2023-02-23T00:49:10;96087.94;;;2.10;67.84
50394;BME280;36308;46.312;25.288;2023-02-23T00:51:36;96078.13;;;2.04;67.54
50394;BME280;36308;46.312;25.288;2023-02-23T00:54:03;96085.47;;;2.08;68.19
50394;BME280;36308;46.312;25.288;2023-02-23T00:56:29;96089.97;;;2.08;67.61
50394;BME280;36308;46.312;25.288;2023-02-23T00:58:55;96098.53;;;2.10;67.59
50394;BME280;36308;46.312;25.288;2023-02-23T01:01:21;96098.75;;;2.08;67.99
50394;BME280;36308;46.312;25.288;2023-02-23T01:03:47;96092.41;;;2.09;67.62
50394;BME280;36308;46.312;25.288;2023-02-23T01:06:15;96105.47;;;2.11;68.04
50394;BME280;36308;46.312;25.288;2023-02-23T01:08:43;96067.91;;;2.00;67.46
50394;BME280;36308;46.312;25.288;2023-02-23T01:11:14;96088.31;;;2.13;68.46
50394;BME280;36308;46.312;25.288;2023-02-23T01:13:42;96088.31;;;2.13;68.21
50394;BME280;36308;46.312;25.288;2023-02-23T01:16:11;96088.75;;;2.17;67.75
50394;BME280;36308;46.312;25.288;2023-02-23T01:18:38;96086.91;;;2.17;67.89
50394;BME280;36308;46.312;25.288;2023-02-23T01:21:05;96092.00;;;2.19;67.63
50394;BME280;36308;46.312;25.288;2023-02-23T01:23:31;96084.88;;;2.19;68.34
50394;BME280;36308;46.312;25.288;2023-02-23T01:25:57;96091.81;;;2.20;68.34
50394;BME280;36308;46.312;25.288;2023-02-23T01:28:22;96090.59;;;2.23;67.92
50394;BME280;36308;46.312;25.288;2023-02-23T01:30:48;96083.44;;;2.23;68.41
50394;BME280;36308;46.312;25.288;2023-02-23T01:33:14;96088.53;;;2.25;68.68
50394;BME280;36308;46.312;25.288;2023-02-23T01:35:39;96088.13;;;2.28;68.42
50394;BME280;36308;46.312;25.288;2023-02-23T01:38:05;96092.44;;;2.29;68.37
50394;BME280;36308;46.312;25.288;2023-02-23T01:40:31;96086.09;;;2.30;67.92
50394;BME280;36308;46.312;25.288;2023-02-23T01:45:39;96088.34;;;2.33;67.87
50394;BME280;36308;46.312;25.288;2023-02-23T01:48:07;96087.53;;;2.33;68.72
50394;BME280;36308;46.312;25.288;2023-02-23T01:50:56;96091.00;;;2.33;68.80
50394;BME280;36308;46.312;25.288;2023-02-23T01:53:28;96081.00;;;2.35;68.55
50394;BME280;36308;46.312;25.288;2023-02-23T01:55:58;96068.94;;;2.26;68.31
50394;BME280;36308;46.312;25.288;2023-02-23T01:58:27;96081.00;;;2.35;68.38
50394;BME280;36308;46.312;25.288;2023-02-23T02:00:56;96085.25;;;2.36;68.42
50394;BME280;36308;46.312;25.288;2023-02-23T02:03:30;96083.66;;;2.35;68.33
50394;BME280;36308;46.312;25.288;2023-02-23T02:05:59;96081.81;;;2.36;68.32
50394;BME280;36308;46.312;25.288;2023-02-23T02:08:28;96080.56;;;2.38;68.24
50394;BME280;36308;46.312;25.288;2023-02-23T02:10:54;96078.94;;;2.37;67.86
50394;BME280;36308;46.312;25.288;2023-02-23T02:13:27;96084.25;;;2.37;67.92
50394;BME280;36308;46.312;25.288;2023-02-23T02:18:41;96084.25;;;2.37;68.03
50394;BME280;36308;46.312;25.288;2023-02-23T02:21:29;96079.56;;;2.39;68.49
50394;BME280;36308;46.312;25.288;2023-02-23T02:27:12;96085.88;;;2.38;68.71
50394;BME280;36308;46.312;25.288;2023-02-23T02:38:11;96084.88;;;2.39;67.88
50394;BME280;36308;46.312;25.288;2023-02-23T02:43:38;96092.84;;;2.39;68.25
50394;BME280;36308;46.312;25.288;2023-02-23T02:46:26;96089.56;;;2.37;68.04
50394;BME280;36308;46.312;25.288;2023-02-23T02:49:16;96083.44;;;2.37;68.64
50394;BME280;36308;46.312;25.288;2023-02-23T02:54:36;96092.84;;;2.39;68.53
50394;BME280;36308;46.312;25.288;2023-02-23T02:57:03;96090.38;;;2.38;68.65
50394;BME280;36308;46.312;25.288;2023-02-23T02:59:31;96096.50;;;2.38;68.73
50394;BME280;36308;46.312;25.288;2023-02-23T03:02:24;96093.03;;;2.38;68.09
50394;BME280;36308;46.312;25.288;2023-02-23T03:05:13;96093.03;;;2.38;68.78
50394;BME280;36308;46.312;25.288;2023-02-23T03:20:04;96098.53;;;2.30;68.07
50394;BME280;36308;46.312;25.288;2023-02-23T03:23:20;96097.31;;;2.32;68.38
50394;BME280;36308;46.312;25.288;2023-02-23T03:26:40;96101.00;;;2.31;68.65
50394;BME280;36308;46.312;25.288;2023-02-23T03:32:43;96107.72;;;2.27;68.52
50394;BME280;36308;46.312;25.288;2023-02-23T03:38:31;96112.41;;;2.25;68.14
50394;BME280;36308;46.312;25.288;2023-02-23T03:41:20;96106.69;;;2.21;68.49
50394;BME280;36308;46.312;25.288;2023-02-23T03:44:14;96100.59;;;2.14;68.14
50394;BME280;36308;46.312;25.288;2023-02-23T03:47:02;96108.97;;;2.18;67.93
50394;BME280;36308;46.312;25.288;2023-02-23T03:49:49;96112.63;;;2.17;67.87
50394;BME280;36308;46.312;25.288;2023-02-23T03:52:46;96114.84;;;2.13;68.69
50394;BME280;36308;46.312;25.288;2023-02-23T03:55:36;96114.03;;;2.13;68.88
50394;BME280;36308;46.312;25.288;2023-02-23T03:58:33;96098.94;;;2.07;68.26
50394;BME280;36308;46.312;25.288;2023-02-23T04:01:20;96108.72;;;2.06;67.91
50394;BME280;36308;46.312;25.288;2023-02-23T04:04:06;96114.84;;;2.07;68.01
50394;BME280;36308;46.312;25.288;2023-02-23T04:06:52;96095.66;;;1.91;68.35
50394;BME280;36308;46.312;25.288;2023-02-23T04:09:38;96107.69;;;2.00;68.78
50394;BME280;36308;46.312;25.288;2023-02-23T04:15:33;96111.16;;;1.94;68.97
50394;BME280;36308;46.312;25.288;2023-02-23T04:18:03;96117.88;;;1.90;68.55
50394;BME280;36308;46.312;25.288;2023-02-23T04:20:29;96108.69;;;1.86;68.13
50394;BME280;36308;46.312;25.288;2023-02-23T04:22:55;96118.06;;;1.82;68.32
50394;BME280;36308;46.312;25.288;2023-02-23T04:25:21;96117.63;;;1.78;68.49
50394;BME280;36308;46.312;25.288;2023-02-23T04:27:48;96121.50;;;1.76;68.43
50394;BME280;36308;46.312;25.288;2023-02-23T04:30:14;96118.03;;;1.69;68.61
50394;BME280;36308;46.312;25.288;2023-02-23T04:32:40;96118.84;;;1.63;68.91
50394;BME280;36308;46.312;25.288;2023-02-23T04:35:06;96125.34;;;1.60;69.12
50394;BME280;36308;46.312;25.288;2023-02-23T04:37:31;96123.28;;;1.55;68.75
50394;BME280;36308;46.312;25.288;2023-02-23T04:39:57;96117.97;;;1.55;69.05
50394;BME280;36308;46.312;25.288;2023-02-23T04:42:22;96120.84;;;1.54;69.37
50394;BME280;36308;46.312;25.288;2023-02-23T04:44:48;96125.31;;;1.53;68.96
50394;BME280;36308;46.312;25.288;2023-02-23T04:47:14;96130.59;;;1.53;69.19
50394;BME280;36308;46.312;25.288;2023-02-23T04:49:40;96115.94;;;1.51;69.61
50394;BME280;36308;46.312;25.288;2023-02-23T04:52:05;96123.69;;;1.52;69.57
50394;BME280;36308;46.312;25.288;2023-02-23T04:54:31;96130.59;;;1.53;69.93
50394;BME280;36308;46.312;25.288;2023-02-23T04:56:56;96127.34;;;1.51;69.88
50394;BME280;36308;46.312;25.288;2023-02-23T04:59:21;96131.63;;;1.52;69.85
50394;BME280;36308;46.312;25.288;2023-02-23T05:01:47;96127.34;;;1.51;70.38
50394;BME280;36308;46.312;25.288;2023-02-23T05:04:13;96132.63;;;1.51;69.94
50394;BME280;36308;46.312;25.288;2023-02-23T05:06:38;96141.19;;;1.53;69.84
50394;BME280;36308;46.312;25.288;2023-02-23T05:09:04;96144.47;;;1.55;69.82
50394;BME280;36308;46.312;25.288;2023-02-23T05:11:31;96150.41;;;1.57;70.05
50394;BME280;36308;46.312;25.288;2023-02-23T05:13:57;96149.41;;;1.58;70.50
50394;BME280;36308;46.312;25.288;2023-02-23T05:16:23;96151.00;;;1.59;70.14
50394;BME280;36308;46.312;25.288;2023-02-23T05:18:49;96128.97;;;1.46;70.04
50394;BME280;36308;46.312;25.288;2023-02-23T05:21:14;96156.75;;;1.63;70.15
50394;BME280;36308;46.312;25.288;2023-02-23T05:23:40;96148.97;;;1.61;70.30
50394;BME280;36308;46.312;25.288;2023-02-23T05:26:08;96159.00;;;1.66;70.60
50394;BME280;36308;46.312;25.288;2023-02-23T05:28:35;96154.53;;;1.67;69.89
50394;BME280;36308;46.312;25.288;2023-02-23T05:31:02;96160.44;;;1.69;69.92
50394;BME280;36308;46.312;25.288;2023-02-23T05:33:32;96166.38;;;1.71;70.02
50394;BME280;36308;46.312;25.288;2023-02-23T05:35:58;96169.44;;;1.74;70.36
50394;BME280;36308;46.312;25.288;2023-02-23T05:38:25;96164.94;;;1.75;70.68
50394;BME280;36308;46.312;25.288;2023-02-23T05:40:51;96178.81;;;1.77;70.34
50394;BME280;36308;46.312;25.288;2023-02-23T05:43:17;96176.78;;;1.79;70.87
50394;BME280;36308;46.312;25.288;2023-02-23T05:45:43;96178.84;;;1.84;70.86
50394;BME280;36308;46.312;25.288;2023-02-23T05:48:10;96183.94;;;1.85;70.68
50394;BME280;36308;46.312;25.288;2023-02-23T05:50:36;96182.53;;;1.89;70.64
50394;BME280;36308;46.312;25.288;2023-02-23T05:53:02;96185.41;;;1.94;71.20
50394;BME280;36308;46.312;25.288;2023-02-23T05:55:27;96192.34;;;1.95;70.42
50394;BME280;36308;46.312;25.288;2023-02-23T05:57:53;96192.34;;;1.95;70.58
50394;BME280;36308;46.312;25.288;2023-02-23T06:00:19;96195.19;;;2.00;71.13
50394;BME280;36308;46.312;25.288;2023-02-23T06:02:44;96203.41;;;2.06;70.81
50394;BME280;36308;46.312;25.288;2023-02-23T06:05:11;96208.28;;;2.09;70.36
50394;BME280;36308;46.312;25.288;2023-02-23T06:07:37;96204.63;;;2.10;70.46
50394;BME280;36308;46.312;25.288;2023-02-23T06:10:03;96212.59;;;2.16;70.68
50394;BME280;36308;46.312;25.288;2023-02-23T06:12:29;96214.03;;;2.19;70.82
50394;BME280;36308;46.312;25.288;2023-02-23T06:14:55;96202.00;;;2.23;71.30
50394;BME280;36308;46.312;25.288;2023-02-23T06:17:21;96219.16;;;2.27;70.56
50394;BME280;36308;46.312;25.288;2023-02-23T06:19:47;96216.09;;;2.30;71.02
50394;BME280;36308;46.312;25.288;2023-02-23T06:22:13;96210.16;;;2.28;71.01
50394;BME280;36308;46.312;25.288;2023-02-23T06:24:39;96214.91;;;2.39;71.11
50394;BME280;36308;46.312;25.288;2023-02-23T06:27:04;96203.66;;;2.31;70.81
50394;BME280;36308;46.312;25.288;2023-02-23T06:29:31;96225.94;;;2.50;71.16
50394;BME280;36308;46.312;25.288;2023-02-23T06:31:56;96227.97;;;2.54;71.23
50394;BME280;36308;46.312;25.288;2023-02-23T06:34:22;96230.84;;;2.59;70.61
50394;BME280;36308;46.312;25.288;2023-02-23T06:36:48;96228.59;;;2.63;70.98
50394;BME280;36308;46.312;25.288;2023-02-23T06:39:13;96219.81;;;2.62;70.52
50394;BME280;36308;46.312;25.288;2023-02-23T06:41:39;96226.97;;;2.75;70.23
50394;BME280;36308;46.312;25.288;2023-02-23T06:44:04;96225.16;;;2.82;70.99
50394;BME280;36308;46.312;25.288;2023-02-23T06:46:30;96229.66;;;2.89;71.07
50394;BME280;36308;46.312;25.288;2023-02-23T06:48:58;96226.78;;;2.97;70.85
50394;BME280;36308;46.312;25.288;2023-02-23T06:51:24;96224.94;;;3.04;70.14
50394;BME280;36308;46.312;25.288;2023-02-23T06:53:50;96232.69;;;3.12;70.63
50394;BME280;36308;46.312;25.288;2023-02-23T06:56:18;96224.72;;;3.19;70.74
50394;BME280;36308;46.312;25.288;2023-02-23T06:58:44;96226.34;;;3.27;70.61
50394;BME280;36308;46.312;25.288;2023-02-23T07:01:10;96230.84;;;3.33;70.02
50394;BME280;36308;46.312;25.288;2023-02-23T07:03:40;96224.69;;;3.39;69.64
50394;BME280;36308;46.312;25.288;2023-02-23T07:06:05;96225.09;;;3.49;69.67
50394;BME280;36308;46.312;25.288;2023-02-23T07:08:32;96222.19;;;3.57;69.45
50394;BME280;36308;46.312;25.288;2023-02-23T07:11:05;96218.47;;;3.65;69.76
50394;BME280;36308;46.312;25.288;2023-02-23T07:13:31;96226.63;;;3.77;69.67
50394;BME280;36308;46.312;25.288;2023-02-23T07:15:56;96221.69;;;3.87;69.06
50394;BME280;36308;46.312;25.288;2023-02-23T07:18:22;96213.72;;;3.87;69.12
50394;BME280;36308;46.312;25.288;2023-02-23T07:20:49;96221.41;;;4.02;69.02
50394;BME280;36308;46.312;25.288;2023-02-23T07:23:16;96227.31;;;4.11;68.68
50394;BME280;36308;46.312;25.288;2023-02-23T07:25:42;96225.00;;;4.21;68.72
50394;BME280;36308;46.312;25.288;2023-02-23T07:28:08;96220.69;;;4.27;68.69
50394;BME280;36308;46.312;25.288;2023-02-23T07:30:33;96217.81;;;4.28;68.13
50394;BME280;36308;46.312;25.288;2023-02-23T07:32:59;96222.59;;;4.51;68.08
50394;BME280;36308;46.312;25.288;2023-02-23T07:35:25;96228.66;;;4.65;67.83
50394;BME280;36308;46.312;25.288;2023-02-23T07:37:50;96219.97;;;4.76;67.76
50394;BME280;36308;46.312;25.288;2023-02-23T07:40:16;96228.44;;;4.92;67.58
50394;BME280;36308;46.312;25.288;2023-02-23T07:42:43;96227.31;;;5.06;67.39
50394;BME280;36308;46.312;25.288;2023-02-23T07:45:09;96224.56;;;5.19;66.71
50394;BME280;36308;46.312;25.288;2023-02-23T07:47:35;96230.56;;;5.33;66.96
50394;BME280;36308;46.312;25.288;2023-02-23T07:50:02;96210.66;;;5.36;66.88
50394;BME280;36308;46.312;25.288;2023-02-23T07:52:37;96223.13;;;5.60;66.37
50394;BME280;36308;46.312;25.288;2023-02-23T07:55:04;96217.88;;;5.72;65.74
50394;BME280;36308;46.312;25.288;2023-02-23T07:57:30;96201.19;;;5.77;65.14
50394;BME280;36308;46.312;25.288;2023-02-23T07:59:55;96193.72;;;5.85;64.98
50394;BME280;36308;46.312;25.288;2023-02-23T08:02:21;96220.31;;;6.11;64.42
50394;BME280;36308;46.312;25.288;2023-02-23T08:04:46;96212.00;;;6.19;64.09
50394;BME280;36308;46.312;25.288;2023-02-23T08:07:12;96221.47;;;6.33;63.64
50394;BME280;36308;46.312;25.288;2023-02-23T08:09:38;96215.34;;;6.44;63.45
50394;BME280;36308;46.312;25.288;2023-02-23T08:12:04;96219.25;;;6.60;63.21
50394;BME280;36308;46.312;25.288;2023-02-23T08:14:29;96222.31;;;6.76;62.97
50394;BME280;36308;46.312;25.288;2023-02-23T08:16:55;96217.09;;;6.93;62.45
50394;BME280;36308;46.312;25.288;2023-02-23T08:19:21;96220.03;;;7.03;61.98
50394;BME280;36308;46.312;25.288;2023-02-23T08:21:50;96213.56;;;7.22;62.04
50394;BME280;36308;46.312;25.288;2023-02-23T08:24:16;96213.09;;;7.37;61.81
50394;BME280;36308;46.312;25.288;2023-02-23T08:26:41;96213.19;;;7.54;61.94
50394;BME280;36308;46.312;25.288;2023-02-23T08:29:07;96214.94;;;7.72;61.73
50394;BME280;36308;46.312;25.288;2023-02-23T08:31:33;96204.31;;;7.89;60.81
50394;BME280;36308;46.312;25.288;2023-02-23T08:33:59;96218.34;;;8.08;60.69
50394;BME280;36308;46.312;25.288;2023-02-23T08:36:24;96216.81;;;8.24;60.02
50394;BME280;36308;46.312;25.288;2023-02-23T08:38:50;96221.38;;;8.40;59.91
50394;BME280;36308;46.312;25.288;2023-02-23T08:41:18;96208.19;;;8.50;59.14
50394;BME280;36308;46.312;25.288;2023-02-23T08:43:44;96218.56;;;8.76;58.69
50394;BME280;36308;46.312;25.288;2023-02-23T08:46:11;96225.59;;;8.94;56.68
50394;BME280;36308;46.312;25.288;2023-02-23T08:48:37;96226.56;;;9.04;56.67
50394;BME280;36308;46.312;25.288;2023-02-23T08:51:05;96219.03;;;9.18;55.20
50394;BME280;36308;46.312;25.288;2023-02-23T08:53:30;96226.16;;;9.29;55.61
50394;BME280;36308;46.312;25.288;2023-02-23T08:56:02;96217.78;;;9.43;55.54
50394;BME280;36308;46.312;25.288;2023-02-23T08:58:29;96223.13;;;9.60;55.71
50394;BME280;36308;46.312;25.288;2023-02-23T09:00:58;96220.41;;;9.77;55.94
50394;BME280;36308;46.312;25.288;2023-02-23T09:03:25;96227.38;;;9.95;55.15
50394;BME280;36308;46.312;25.288;2023-02-23T09:05:53;96224.63;;;10.11;54.08
50394;BME280;36308;46.312;25.288;2023-02-23T09:08:20;96223.28;;;10.31;53.00
50394;BME280;36308;46.312;25.288;2023-02-23T09:10:46;96207.78;;;10.38;53.44
50394;BME280;36308;46.312;25.288;2023-02-23T09:13:12;96213.94;;;10.61;52.09
50394;BME280;36308;46.312;25.288;2023-02-23T09:15:38;96218.41;;;10.77;52.57
50394;BME280;36308;46.312;25.288;2023-02-23T09:18:05;96223.94;;;10.92;52.31
50394;BME280;36308;46.312;25.288;2023-02-23T09:20:31;96225.69;;;11.09;51.48
50394;BME280;36308;46.312;25.288;2023-02-23T09:22:57;96216.69;;;11.25;51.92
50394;BME280;36308;46.312;25.288;2023-02-23T09:25:23;96219.47;;;11.41;51.04
50394;BME280;36308;46.312;25.288;2023-02-23T09:27:51;96197.44;;;11.44;49.67
50394;BME280;36308;46.312;25.288;2023-02-23T09:30:19;96188.81;;;11.47;49.69
50394;BME280;36308;46.312;25.288;2023-02-23T09:32:53;96219.75;;;11.82;49.07
50394;BME280;36308;46.312;25.288;2023-02-23T09:35:21;96217.69;;;11.94;48.92
50394;BME280;36308;46.312;25.288;2023-02-23T09:37:48;96215.06;;;12.09;48.35
50394;BME280;36308;46.312;25.288;2023-02-23T09:43:02;96216.53;;;12.38;47.26
50394;BME280;36308;46.312;25.288;2023-02-23T09:45:43;96214.16;;;12.57;47.13
50394;BME280;36308;46.312;25.288;2023-02-23T09:48:16;96215.28;;;12.71;46.78
50394;BME280;36308;46.312;25.288;2023-02-23T09:50:46;96211.50;;;12.82;47.18
50394;BME280;36308;46.312;25.288;2023-02-23T09:55:44;96211.56;;;13.13;46.62
50394;BME280;36308;46.312;25.288;2023-02-23T09:58:22;96207.22;;;13.27;45.30
50394;BME280;36308;46.312;25.288;2023-02-23T10:01:26;96209.97;;;13.43;44.37
50394;BME280;36308;46.312;25.288;2023-02-23T10:04:07;96215.88;;;13.60;43.82
50394;BME280;36308;46.312;25.288;2023-02-23T10:06:38;96198.88;;;13.60;42.80
50394;BME280;36308;46.312;25.288;2023-02-23T10:09:41;96211.53;;;13.74;42.56
50394;BME280;36308;46.312;25.288;2023-02-23T10:15:27;96206.63;;;13.92;42.08
50394;BME280;36308;46.312;25.288;2023-02-23T10:18:36;96209.34;;;13.97;41.85
50394;BME280;36308;46.312;25.288;2023-02-23T10:26:17;96198.16;;;14.24;41.63
50394;BME280;36308;46.312;25.288;2023-02-23T10:28:43;96185.66;;;14.33;41.24
50394;BME280;36308;46.312;25.288;2023-02-23T10:31:36;96192.88;;;14.48;41.16
50394;BME280;36308;46.312;25.288;2023-02-23T10:34:10;96197.72;;;14.62;40.82
50394;BME280;36308;46.312;25.288;2023-02-23T10:36:42;96190.63;;;14.71;40.48
50394;BME280;36308;46.312;25.288;2023-02-23T10:39:11;96185.72;;;14.78;40.65
50394;BME280;36308;46.312;25.288;2023-02-23T10:41:37;96180.06;;;14.80;40.69
50394;BME280;36308;46.312;25.288;2023-02-23T10:44:04;96167.63;;;14.73;40.26
50394;BME280;36308;46.312;25.288;2023-02-23T10:46:36;96176.16;;;14.91;39.80
50394;BME280;36308;46.312;25.288;2023-02-23T10:49:03;96168.81;;;14.97;39.82
50394;BME280;36308;46.312;25.288;2023-02-23T10:51:35;96159.06;;;14.95;39.88
50394;BME280;36308;46.312;25.288;2023-02-23T10:57:02;96177.47;;;15.33;40.26
50394;BME280;36308;46.312;25.288;2023-02-23T10:59:29;96153.88;;;15.33;39.92
50394;BME280;36308;46.312;25.288;2023-02-23T11:01:54;96170.47;;;15.56;40.83
50394;BME280;36308;46.312;25.288;2023-02-23T11:04:23;96144.47;;;15.55;39.84
50394;BME280;36308;46.312;25.288;2023-02-23T11:06:49;96159.41;;;15.82;39.84
50394;BME280;36308;46.312;25.288;2023-02-23T11:09:25;96160.63;;;15.94;38.23
50394;BME280;36308;46.312;25.288;2023-02-23T11:14:26;96161.47;;;16.14;38.06
50394;BME280;36308;46.312;25.288;2023-02-23T11:16:54;96149.19;;;16.22;38.70
50394;BME280;36308;46.312;25.288;2023-02-23T11:19:26;96149.56;;;16.34;38.54
50394;BME280;36308;46.312;25.288;2023-02-23T11:21:54;96147.22;;;16.46;37.46
50394;BME280;36308;46.312;25.288;2023-02-23T11:24:27;96143.06;;;16.54;37.66
50394;BME280;36308;46.312;25.288;2023-02-23T11:27:00;96142.59;;;16.66;36.46
50394;BME280;36308;46.312;25.288;2023-02-23T11:32:08;96149.47;;;16.82;36.44
50394;BME280;36308;46.312;25.288;2023-02-23T11:34:38;96115.41;;;16.71;35.79
50394;BME280;36308;46.312;25.288;2023-02-23T11:37:19;96143.34;;;16.90;36.06
50394;BME280;36308;46.312;25.288;2023-02-23T11:39:55;96141.09;;;16.98;35.81
50394;BME280;36308;46.312;25.288;2023-02-23T11:42:26;96124.97;;;16.87;35.94
50394;BME280;36308;46.312;25.288;2023-02-23T11:47:28;96135.47;;;17.08;35.63
50394;BME280;36308;46.312;25.288;2023-02-23T11:49:55;96149.91;;;17.22;35.61
50394;BME280;36308;46.312;25.288;2023-02-23T11:52:23;96153.47;;;17.23;35.03
50394;BME280;36308;46.312;25.288;2023-02-23T11:54:58;96132.75;;;17.08;35.08
50394;BME280;36308;46.312;25.288;2023-02-23T11:57:33;96152.22;;;17.15;35.01
50394;BME280;36308;46.312;25.288;2023-02-23T12:00:03;96142.94;;;17.16;35.36
50394;BME280;36308;46.312;25.288;2023-02-23T12:02:45;96148.88;;;17.18;35.36
50394;BME280;36308;46.312;25.288;2023-02-23T12:05:24;96155.84;;;17.24;35.58
50394;BME280;36308;46.312;25.288;2023-02-23T12:08:39;96148.53;;;17.25;35.52
50394;BME280;36308;46.312;25.288;2023-02-23T12:11:11;96151.53;;;17.23;35.83
50394;BME280;36308;46.312;25.288;2023-02-23T12:13:45;96152.94;;;17.21;35.51
50394;BME280;36308;46.312;25.288;2023-02-23T12:21:49;96158.59;;;17.05;35.73
50394;BME280;36308;46.312;25.288;2023-02-23T12:24:35;96150.41;;;16.91;36.01
50394;BME280;36308;46.312;25.288;2023-02-23T12:33:01;96144.81;;;16.64;36.62
50394;BME280;36308;46.312;25.288;2023-02-23T12:35:38;96120.66;;;16.43;37.09
50394;BME280;36308;46.312;25.288;2023-02-23T12:38:20;96144.81;;;16.45;36.54
50394;BME280;36308;46.312;25.288;2023-02-23T12:40:55;96145.75;;;16.35;37.00
50394;BME280;36308;46.312;25.288;2023-02-23T12:43:34;96139.88;;;16.28;36.93
50394;BME280;36308;46.312;25.288;2023-02-23T12:46:08;96123.94;;;16.02;36.29
50394;BME280;36308;46.312;25.288;2023-02-23T12:51:35;96135.56;;;15.79;37.19
50394;BME280;36308;46.312;25.288;2023-02-23T12:54:03;96112.41;;;15.38;37.11
50394;BME280;36308;46.312;25.288;2023-02-23T12:59:35;96142.53;;;15.31;37.93
50394;BME280;36308;46.312;25.288;2023-02-23T13:02:13;96140.50;;;15.18;38.13
50394;BME280;36308;46.312;25.288;2023-02-23T13:04:48;96141.91;;;15.10;38.35
50394;BME280;36308;46.312;25.288;2023-02-23T13:07:31;96141.97;;;15.00;38.50
50394;BME280;36308;46.312;25.288;2023-02-23T13:10:50;96125.09;;;14.79;39.10
50394;BME280;36308;46.312;25.288;2023-02-23T13:21:39;96132.69;;;14.77;39.38
50394;BME280;36308;46.312;25.288;2023-02-23T13:24:17;96127.88;;;14.69;39.72
50394;BME280;36308;46.312;25.288;2023-02-23T13:29:30;96130.66;;;14.53;39.58
50394;BME280;36308;46.312;25.288;2023-02-23T13:32:00;96131.47;;;14.54;39.47
50394;BME280;36308;46.312;25.288;2023-02-23T13:34:29;96108.50;;;14.46;39.67
50394;BME280;36308;46.312;25.288;2023-02-23T13:36:57;96129.50;;;14.65;39.57
50394;BME280;36308;46.312;25.288;2023-02-23T13:48:10;96130.94;;;14.91;39.91
50394;BME280;36308;46.312;25.288;2023-02-23T13:51:05;96135.81;;;14.94;39.12
50394;BME280;36308;46.312;25.288;2023-02-23T13:54:00;96130.94;;;14.91;38.90
50394;BME280;36308;46.312;25.288;2023-02-23T13:56:29;96129.38;;;14.85;39.12
50394;BME280;36308;46.312;25.288;2023-02-23T13:59:06;96127.00;;;14.79;39.44
50394;BME280;36308;46.312;25.288;2023-02-23T14:01:38;96122.44;;;14.74;39.56
50394;BME280;36308;46.312;25.288;2023-02-23T14:04:19;96104.69;;;14.58;39.57
50394;BME280;36308;46.312;25.288;2023-02-23T14:09:23;96136.56;;;14.61;39.55
50394;BME280;36308;46.312;25.288;2023-02-23T14:12:13;96133.16;;;14.45;39.58
50394;BME280;36308;46.312;25.288;2023-02-23T14:14:44;96131.84;;;14.37;40.13
50394;BME280;36308;46.312;25.288;2023-02-23T14:22:35;96124.47;;;13.88;40.93
50394;BME280;36308;46.312;25.288;2023-02-23T14:28:00;96132.91;;;13.76;41.07
50394;BME280;36308;46.312;25.288;2023-02-23T14:30:43;96133.47;;;13.63;41.14
50394;BME280;36308;46.312;25.288;2023-02-23T14:41:27;96124.38;;;12.97;41.45
50394;BME280;36308;46.312;25.288;2023-02-23T14:44:07;96126.53;;;12.90;41.82
50394;BME280;36308;46.312;25.288;2023-02-23T14:46:36;96142.72;;;12.90;42.16
50394;BME280;36308;46.312;25.288;2023-02-23T14:49:08;96137.31;;;12.80;42.39
50394;BME280;36308;46.312;25.288;2023-02-23T14:51:55;96148.91;;;12.70;42.54
50394;BME280;36308;46.312;25.288;2023-02-23T14:54:34;96135.41;;;12.54;42.38
50394;BME280;36308;46.312;25.288;2023-02-23T14:57:21;96138.34;;;12.43;42.77
50394;BME280;36308;46.312;25.288;2023-02-23T14:59:53;96131.06;;;12.38;43.22
50394;BME280;36308;46.312;25.288;2023-02-23T15:02:22;96132.66;;;12.34;43.31
50394;BME280;36308;46.312;25.288;2023-02-23T15:04:49;96122.41;;;12.26;43.56
50394;BME280;36308;46.312;25.288;2023-02-23T15:07:18;96133.72;;;12.23;43.20
50394;BME280;36308;46.312;25.288;2023-02-23T15:09:50;96090.25;;;11.93;43.69
50394;BME280;36308;46.312;25.288;2023-02-23T15:12:20;96134.75;;;12.06;43.61
50394;BME280;36308;46.312;25.288;2023-02-23T15:14:48;96124.44;;;11.93;43.71
50394;BME280;36308;46.312;25.288;2023-02-23T15:17:22;96129.25;;;11.86;43.61
50394;BME280;36308;46.312;25.288;2023-02-23T15:19:53;96126.78;;;11.74;43.87
50394;BME280;36308;46.312;25.288;2023-02-23T15:22:32;96131.06;;;11.70;44.18
50394;BME280;36308;46.312;25.288;2023-02-23T15:25:01;96137.22;;;11.60;44.17